createdAt,value
2017-04-05T00:00:19.224Z,9.54
2017-04-05T00:01:17.786Z,9.43
2017-04-05T00:02:16.291Z,9.63
2017-04-05T00:03:14.840Z,9.67
2017-04-05T00:04:13.350Z,9.73
2017-04-05T00:05:11.927Z,9.65
2017-04-05T00:06:10.467Z,9.73
2017-04-05T00:07:09.130Z,9.88
2017-04-05T00:08:07.772Z,9.69
2017-04-05T00:09:06.389Z,9.60
2017-04-05T00:10:04.987Z,9.37
2017-04-05T00:11:03.524Z,9.29
2017-04-05T00:12:02.163Z,9.32
2017-04-05T00:13:00.679Z,9.39
2017-04-05T00:13:59.222Z,9.29
2017-04-05T00:14:57.752Z,9.26
2017-04-05T00:15:56.328Z,9.28
2017-04-05T00:16:54.879Z,9.31
2017-04-05T00:17:53.400Z,9.38
2017-04-05T00:18:51.910Z,9.46
2017-04-05T00:19:50.510Z,9.52
2017-04-05T00:20:49.050Z,9.67
2017-04-05T00:21:47.619Z,9.86
2017-04-05T00:22:46.114Z,9.76
2017-04-05T00:23:44.707Z,9.66
2017-04-05T00:24:43.215Z,9.59
2017-04-05T00:25:41.763Z,9.53
2017-04-05T00:26:40.262Z,9.64
2017-04-05T00:27:38.814Z,9.50
2017-04-05T00:28:37.362Z,9.49
2017-04-05T00:29:35.898Z,9.54
2017-04-05T00:30:34.416Z,9.52
2017-04-05T00:31:33.135Z,9.39
2017-04-05T00:32:31.898Z,9.55
2017-04-05T00:33:30.578Z,9.37
2017-04-05T00:34:29.175Z,9.37
2017-04-05T00:35:27.763Z,9.23
2017-04-05T00:36:26.386Z,9.32
2017-04-05T00:37:24.894Z,9.42
2017-04-05T00:38:23.407Z,9.44
2017-04-05T00:39:21.931Z,9.74
2017-04-05T00:40:20.495Z,9.49
2017-04-05T00:41:19.024Z,9.48
2017-04-05T00:42:17.561Z,9.31
2017-04-05T00:43:16.098Z,9.20
2017-04-05T00:44:14.635Z,9.23
2017-04-05T00:45:13.199Z,9.39
2017-04-05T00:46:11.803Z,9.45
2017-04-05T00:47:10.326Z,9.40
2017-04-05T00:48:08.939Z,9.40
2017-04-05T00:49:07.527Z,9.39
2017-04-05T00:50:06.083Z,9.40
2017-04-05T00:51:04.651Z,9.34
2017-04-05T00:52:03.219Z,9.20
2017-04-05T00:53:01.763Z,9.13
2017-04-05T00:54:00.282Z,9.12
2017-04-05T00:54:58.879Z,9.21
2017-04-05T00:55:57.490Z,9.35
2017-04-05T00:56:55.998Z,9.42
2017-04-05T00:57:54.585Z,9.47
2017-04-05T00:58:53.125Z,9.31
2017-04-05T00:59:51.641Z,9.33
2017-04-05T01:00:50.159Z,9.13
2017-04-05T01:01:48.730Z,9.20
2017-04-05T01:02:47.253Z,9.08
2017-04-05T01:03:45.754Z,9.08
2017-04-05T01:04:44.263Z,9.02
2017-04-05T01:05:42.764Z,9.12
2017-04-05T01:06:41.331Z,9.09
2017-04-05T01:07:39.839Z,9.07
2017-04-05T01:08:38.362Z,8.79
2017-04-05T01:09:36.871Z,8.98
2017-04-05T01:10:35.430Z,9.03
2017-04-05T01:11:33.931Z,9.05
2017-04-05T01:12:32.487Z,8.98
2017-04-05T01:13:31.010Z,8.94
2017-04-05T01:14:29.495Z,8.95
2017-04-05T01:15:28.112Z,8.98
2017-04-05T01:16:26.636Z,9.15
2017-04-05T01:17:25.199Z,9.27
2017-04-05T01:18:23.766Z,9.42
2017-04-05T01:19:22.276Z,9.47
2017-04-05T01:20:20.851Z,9.56
2017-04-05T01:21:19.459Z,9.53
2017-04-05T01:22:18.016Z,9.33
2017-04-05T01:23:16.554Z,9.12
2017-04-05T01:24:15.150Z,9.24
2017-04-05T01:25:13.656Z,9.34
2017-04-05T01:26:12.186Z,9.43
2017-04-05T01:27:10.700Z,9.55
2017-04-05T01:28:09.263Z,9.43
2017-04-05T01:29:07.880Z,9.11
2017-04-05T01:30:06.364Z,8.92
2017-04-05T01:31:04.863Z,8.71
2017-04-05T01:32:03.401Z,8.86
2017-04-05T01:33:01.927Z,8.69
2017-04-05T01:34:00.467Z,8.64
2017-04-05T01:34:59.038Z,8.74
2017-04-05T01:35:57.548Z,8.85
2017-04-05T01:36:56.073Z,8.69
2017-04-05T01:37:54.579Z,8.59
2017-04-05T01:38:53.115Z,8.43
2017-04-05T01:39:51.637Z,8.65
2017-04-05T01:40:50.194Z,8.50
2017-04-05T01:41:48.739Z,8.50
2017-04-05T01:42:47.230Z,8.59
2017-04-05T01:43:45.922Z,8.48
2017-04-05T01:44:44.419Z,8.46
2017-04-05T01:45:42.975Z,8.42
2017-04-05T01:46:41.488Z,8.41
2017-04-05T01:47:39.975Z,8.47
2017-04-05T01:48:38.523Z,8.44
2017-04-05T01:49:37.035Z,8.39
2017-04-05T01:50:35.612Z,8.46
2017-04-05T01:51:34.142Z,8.51
2017-04-05T01:52:32.693Z,8.35
2017-04-05T01:53:31.203Z,8.33
2017-04-05T01:54:29.935Z,8.45
2017-04-05T01:55:28.495Z,8.47
2017-04-05T01:56:26.992Z,8.30
2017-04-05T01:57:25.476Z,8.33
2017-04-05T01:58:23.996Z,8.42
2017-04-05T01:59:22.602Z,8.36
2017-04-05T02:00:21.172Z,8.27
2017-04-05T02:01:19.912Z,8.12
2017-04-05T02:02:18.578Z,8.14
2017-04-05T02:03:17.189Z,8.05
2017-04-05T02:04:15.794Z,8.34
2017-04-05T02:05:14.415Z,8.25
2017-04-05T02:06:12.979Z,8.38
2017-04-05T02:07:11.506Z,8.56
2017-04-05T02:08:10.191Z,8.64
2017-04-05T02:09:08.879Z,8.77
2017-04-05T02:10:07.503Z,8.77
2017-04-05T02:11:06.087Z,8.79
2017-04-05T02:12:04.751Z,8.83
2017-04-05T02:13:03.347Z,8.70
2017-04-05T02:14:01.879Z,8.78
2017-04-05T02:15:00.398Z,8.97
2017-04-05T02:15:58.895Z,8.93
2017-04-05T02:16:57.418Z,8.98
2017-04-05T02:17:55.907Z,9.05
2017-04-05T02:18:54.443Z,8.93
2017-04-05T02:19:53.110Z,8.74
2017-04-05T02:20:51.714Z,8.71
2017-04-05T02:21:50.206Z,8.34
2017-04-05T02:22:48.834Z,8.49
2017-04-05T02:23:47.499Z,8.46
2017-04-05T02:24:46.095Z,8.44
2017-04-05T02:25:44.650Z,8.29
2017-04-05T02:26:43.242Z,8.17
2017-04-05T02:27:41.758Z,8.18
2017-04-05T02:28:40.303Z,8.06
2017-04-05T02:29:38.818Z,8.12
2017-04-05T02:30:37.331Z,8.14
2017-04-05T02:31:35.927Z,8.06
2017-04-05T02:32:34.563Z,7.92
2017-04-05T02:33:33.098Z,7.81
2017-04-05T02:34:31.612Z,7.73
2017-04-05T02:35:30.220Z,7.92
2017-04-05T02:36:28.823Z,7.93
2017-04-05T02:37:27.490Z,7.98
2017-04-05T02:38:26.087Z,7.90
2017-04-05T02:39:24.594Z,7.80
2017-04-05T02:40:23.066Z,7.84
2017-04-05T02:41:21.594Z,7.76
2017-04-05T02:42:20.127Z,7.78
2017-04-05T02:43:18.835Z,7.64
2017-04-05T02:44:17.349Z,7.60
2017-04-05T02:45:15.978Z,7.67
2017-04-05T02:46:14.626Z,7.67
2017-04-05T02:47:13.167Z,7.75
2017-04-05T02:48:11.703Z,7.71
2017-04-05T02:49:10.334Z,7.72
2017-04-05T02:50:08.890Z,7.67
2017-04-05T02:51:07.410Z,7.64
2017-04-05T02:52:05.907Z,7.77
2017-04-05T02:53:04.508Z,7.60
2017-04-05T02:54:02.999Z,7.68
2017-04-05T02:55:01.508Z,7.81
2017-04-05T02:56:00.017Z,7.78
2017-04-05T02:56:58.599Z,7.81
2017-04-05T02:57:57.107Z,7.90
2017-04-05T02:58:55.615Z,7.84
2017-04-05T02:59:54.167Z,7.80
2017-04-05T03:00:52.795Z,7.83
2017-04-05T03:01:51.291Z,7.72
2017-04-05T03:02:49.783Z,7.70
2017-04-05T03:03:48.335Z,7.57
2017-04-05T03:04:46.955Z,7.77
2017-04-05T03:05:45.519Z,7.79
2017-04-05T03:06:44.038Z,7.61
2017-04-05T03:07:42.538Z,7.56
2017-04-05T03:08:41.042Z,7.61
2017-04-05T03:09:39.562Z,7.65
2017-04-05T03:10:38.071Z,7.80
2017-04-05T03:11:36.620Z,7.85
2017-04-05T03:12:35.251Z,7.73
2017-04-05T03:13:33.795Z,7.63
2017-04-05T03:14:32.379Z,7.63
2017-04-05T03:15:30.901Z,7.60
2017-04-05T03:16:29.428Z,7.76
2017-04-05T03:17:27.949Z,7.79
2017-04-05T03:18:26.466Z,7.95
2017-04-05T03:19:25.080Z,8.12
2017-04-05T03:20:24.475Z,7.98
2017-04-05T03:21:22.971Z,8.08
2017-04-05T03:22:21.549Z,8.11
2017-04-05T03:23:20.219Z,8.02
2017-04-05T03:24:18.798Z,8.01
2017-04-05T03:25:17.343Z,8.02
2017-04-05T03:26:15.841Z,8.17
2017-04-05T03:27:14.382Z,8.29
2017-04-05T03:28:13.179Z,8.33
2017-04-05T03:29:11.700Z,8.36
2017-04-05T03:30:10.212Z,8.33
2017-04-05T03:31:08.723Z,8.31
2017-04-05T03:32:07.255Z,8.36
2017-04-05T03:33:05.799Z,8.20
2017-04-05T03:34:04.327Z,8.06
2017-04-05T03:35:02.895Z,8.22
2017-04-05T03:36:01.512Z,8.06
2017-04-05T03:37:00.032Z,7.98
2017-04-05T03:37:58.531Z,8.06
2017-04-05T03:38:57.142Z,7.99
2017-04-05T03:39:55.643Z,7.90
2017-04-05T03:40:54.155Z,7.76
2017-04-05T03:41:52.996Z,7.76
2017-04-05T03:42:51.674Z,7.71
2017-04-05T03:43:50.292Z,7.64
2017-04-05T03:44:48.913Z,7.51
2017-04-05T03:45:47.383Z,7.34
2017-04-05T03:46:45.957Z,7.38
2017-04-05T03:47:44.462Z,7.25
2017-04-05T03:48:42.967Z,7.24
2017-04-05T03:49:41.451Z,7.33
2017-04-05T03:50:39.987Z,7.40
2017-04-05T03:51:38.483Z,7.54
2017-04-05T03:52:37.210Z,7.40
2017-04-05T03:53:35.724Z,7.50
2017-04-05T03:54:34.345Z,7.43
2017-04-05T03:55:32.934Z,7.35
2017-04-05T03:56:31.428Z,7.31
2017-04-05T03:57:29.936Z,7.38
2017-04-05T03:58:28.483Z,7.56
2017-04-05T03:59:27.083Z,7.65
2017-04-05T04:00:25.808Z,7.77
2017-04-05T04:01:24.351Z,7.88
2017-04-05T04:02:22.886Z,7.95
2017-04-05T04:03:21.433Z,8.02
2017-04-05T04:04:19.944Z,8.02
2017-04-05T04:05:18.438Z,7.87
2017-04-05T04:06:16.926Z,7.77
2017-04-05T04:07:15.423Z,7.85
2017-04-05T04:08:13.934Z,7.72
2017-04-05T04:09:12.572Z,7.52
2017-04-05T04:10:11.216Z,7.63
2017-04-05T04:11:09.696Z,7.73
2017-04-05T04:12:08.298Z,7.76
2017-04-05T04:13:06.871Z,7.77
2017-04-05T04:14:05.409Z,7.84
2017-04-05T04:15:03.972Z,7.84
2017-04-05T04:16:02.604Z,7.85
2017-04-05T04:17:01.198Z,7.95
2017-04-05T04:17:59.791Z,7.84
2017-04-05T04:18:58.318Z,7.62
2017-04-05T04:19:56.826Z,7.55
2017-04-05T04:20:55.316Z,7.57
2017-04-05T04:21:53.843Z,7.48
2017-04-05T04:22:52.414Z,7.41
2017-04-05T04:23:50.925Z,7.49
2017-04-05T04:24:49.408Z,7.50
2017-04-05T04:25:47.923Z,7.56
2017-04-05T04:26:46.444Z,7.70
2017-04-05T04:27:44.935Z,7.73
2017-04-05T04:28:43.467Z,7.82
2017-04-05T04:29:41.969Z,7.84
2017-04-05T04:30:40.855Z,7.82
2017-04-05T04:31:39.383Z,7.76
2017-04-05T04:32:38.018Z,7.52
2017-04-05T04:33:36.573Z,7.66
2017-04-05T04:34:35.151Z,7.58
2017-04-05T04:35:33.719Z,7.51
2017-04-05T04:36:32.259Z,7.46
2017-04-05T04:37:30.782Z,7.59
2017-04-05T04:38:29.323Z,7.41
2017-04-05T04:39:27.830Z,7.32
2017-04-05T04:40:26.388Z,7.26
2017-04-05T04:41:24.937Z,7.21
2017-04-05T04:42:23.472Z,7.14
2017-04-05T04:43:21.976Z,6.85
2017-04-05T04:44:20.636Z,6.88
2017-04-05T04:45:19.175Z,6.79
2017-04-05T04:46:17.671Z,6.95
2017-04-05T04:47:16.303Z,6.92
2017-04-05T04:48:15.040Z,6.77
2017-04-05T04:49:13.590Z,6.90
2017-04-05T04:50:12.114Z,6.93
2017-04-05T04:51:10.657Z,7.02
2017-04-05T04:52:09.179Z,6.92
2017-04-05T04:53:07.760Z,6.89
2017-04-05T04:54:06.359Z,6.92
2017-04-05T04:55:04.979Z,6.88
2017-04-05T04:56:03.683Z,6.94
2017-04-05T04:57:02.290Z,7.10
2017-04-05T04:58:00.799Z,7.18
2017-04-05T04:58:59.363Z,7.32
2017-04-05T04:59:58.188Z,7.46
2017-04-05T05:00:56.788Z,7.39
2017-04-05T05:01:55.322Z,7.37
2017-04-05T05:02:53.830Z,7.25
2017-04-05T05:03:52.318Z,7.23
2017-04-05T05:04:50.832Z,7.18
2017-04-05T05:05:49.364Z,7.34
2017-04-05T05:06:47.881Z,7.40
2017-04-05T05:07:46.479Z,7.49
2017-04-05T05:08:45.118Z,7.53
2017-04-05T05:09:43.654Z,7.64
2017-04-05T05:10:42.372Z,7.72
2017-04-05T05:11:40.951Z,7.66
2017-04-05T05:12:39.520Z,7.65
2017-04-05T05:13:38.045Z,7.71
2017-04-05T05:14:36.592Z,7.67
2017-04-05T05:15:35.123Z,7.77
2017-04-05T05:16:33.636Z,7.63
2017-04-05T05:17:32.154Z,7.61
2017-04-05T05:18:30.665Z,7.53
2017-04-05T05:19:29.197Z,7.33
2017-04-05T05:20:27.827Z,7.38
2017-04-05T05:21:26.441Z,7.50
2017-04-05T05:22:25.030Z,7.31
2017-04-05T05:23:23.680Z,7.37
2017-04-05T05:24:22.314Z,7.41
2017-04-05T05:25:20.838Z,7.18
2017-04-05T05:26:19.323Z,7.04
2017-04-05T05:27:17.831Z,6.97
2017-04-05T05:28:16.356Z,6.87
2017-04-05T05:29:14.879Z,6.89
2017-04-05T05:30:13.428Z,6.97
2017-04-05T05:31:11.987Z,7.02
2017-04-05T05:32:10.504Z,7.06
2017-04-05T05:33:09.239Z,7.12
2017-04-05T05:34:07.859Z,7.02
2017-04-05T05:35:06.388Z,7.08
2017-04-05T05:36:04.927Z,6.94
2017-04-05T05:37:03.444Z,6.99
2017-04-05T05:38:02.122Z,7.09
2017-04-05T05:39:00.669Z,7.06
2017-04-05T05:39:59.271Z,7.03
2017-04-05T05:40:57.764Z,7.09
2017-04-05T05:41:56.251Z,7.08
2017-04-05T05:42:54.772Z,7.24
2017-04-05T05:43:53.398Z,7.35
2017-04-05T05:44:51.943Z,7.45
2017-04-05T05:45:50.438Z,7.51
2017-04-05T05:46:48.991Z,7.50
2017-04-05T05:47:47.579Z,7.42
2017-04-05T05:48:46.128Z,7.49
2017-04-05T05:49:44.744Z,7.58
2017-04-05T05:50:43.474Z,7.62
2017-04-05T05:51:42.048Z,7.79
2017-04-05T05:52:40.592Z,7.88
2017-04-05T05:53:39.228Z,7.92
2017-04-05T05:54:37.762Z,7.67
2017-04-05T05:55:36.320Z,7.36
2017-04-05T05:56:34.842Z,7.41
2017-04-05T05:57:33.486Z,7.39
2017-04-05T05:58:32.245Z,7.51
2017-04-05T05:59:32.579Z,7.62
2017-04-05T06:00:31.384Z,7.66
2017-04-05T06:01:29.903Z,7.69
2017-04-05T06:02:28.443Z,7.88
2017-04-05T06:03:26.960Z,7.81
2017-04-05T06:04:25.478Z,7.77
2017-04-05T06:05:24.043Z,7.77
2017-04-05T06:06:22.981Z,7.83
2017-04-05T06:07:22.047Z,7.94
2017-04-05T06:08:20.627Z,8.05
2017-04-05T06:09:19.176Z,8.15
2017-04-05T06:10:17.791Z,8.00
2017-04-05T06:11:16.388Z,8.17
2017-04-05T06:12:15.049Z,8.13
2017-04-05T06:13:13.706Z,8.07
2017-04-05T06:14:12.453Z,8.05
2017-04-05T06:15:14.927Z,8.07
2017-04-05T06:16:13.520Z,8.11
2017-04-05T06:17:12.060Z,7.96
2017-04-05T06:18:10.799Z,7.96
2017-04-05T06:19:09.544Z,8.09
2017-04-05T06:20:08.194Z,8.20
2017-04-05T06:21:06.924Z,8.10
2017-04-05T06:22:05.471Z,8.10
2017-04-05T06:23:04.087Z,8.10
2017-04-05T06:24:02.780Z,8.10
2017-04-05T06:25:01.392Z,8.20
2017-04-05T06:26:00.039Z,8.27
2017-04-05T06:26:58.571Z,8.36
2017-04-05T06:27:57.406Z,8.40
2017-04-05T06:28:56.157Z,8.48
2017-04-05T06:29:54.873Z,8.60
2017-04-05T06:30:53.466Z,8.61
2017-04-05T06:31:54.605Z,8.62
2017-04-05T06:32:53.382Z,8.70
2017-04-05T06:33:52.052Z,8.66
2017-04-05T06:34:50.777Z,8.52
2017-04-05T06:35:49.287Z,8.57
2017-04-05T06:36:47.823Z,8.45
2017-04-05T06:37:46.411Z,8.28
2017-04-05T06:38:45.310Z,8.28
2017-04-05T06:39:43.862Z,8.18
2017-04-05T06:40:42.416Z,8.26
2017-04-05T06:41:41.120Z,8.37
2017-04-05T06:42:39.675Z,8.46
2017-04-05T06:43:38.250Z,8.48
2017-04-05T06:44:36.783Z,8.55
2017-04-05T06:45:35.311Z,8.61
2017-04-05T06:46:34.252Z,8.70
2017-04-05T06:47:32.761Z,8.70
2017-04-05T06:48:31.296Z,8.80
2017-04-05T06:49:29.911Z,8.88
2017-04-05T06:50:28.504Z,8.97
2017-04-05T06:51:27.145Z,9.11
2017-04-05T06:52:25.744Z,9.20
2017-04-05T06:53:24.332Z,9.23
2017-04-05T06:54:22.839Z,9.28
2017-04-05T06:55:21.458Z,9.43
2017-04-05T06:56:19.988Z,9.53
2017-04-05T06:57:18.620Z,9.52
2017-04-05T06:58:17.252Z,9.55
2017-04-05T06:59:15.774Z,9.52
2017-04-05T07:00:14.554Z,9.60
2017-04-05T07:01:13.208Z,9.65
2017-04-05T07:02:11.728Z,9.69
2017-04-05T07:03:10.286Z,9.73
2017-04-05T07:04:08.919Z,9.78
2017-04-05T07:05:08.484Z,9.86
2017-04-05T07:06:07.063Z,9.76
2017-04-05T07:07:06.147Z,9.80
2017-04-05T07:08:04.695Z,9.73
2017-04-05T07:09:03.405Z,9.54
2017-04-05T07:10:02.405Z,9.49
2017-04-05T07:11:00.958Z,9.48
2017-04-05T07:11:59.486Z,9.42
2017-04-05T07:12:58.122Z,9.45
2017-04-05T07:13:56.656Z,9.46
2017-04-05T07:14:55.222Z,9.75
2017-04-05T07:15:53.850Z,9.65
2017-04-05T07:16:52.441Z,9.57
2017-04-05T07:17:50.949Z,9.87
2017-04-05T07:18:49.489Z,9.87
2017-04-05T07:19:48.047Z,9.74
2017-04-05T07:20:46.608Z,9.76
2017-04-05T07:21:45.112Z,9.49
2017-04-05T07:22:43.731Z,9.47
2017-04-05T07:23:42.216Z,9.68
2017-04-05T07:24:40.727Z,9.75
2017-04-05T07:25:39.240Z,9.80
2017-04-05T07:26:37.776Z,9.78
2017-04-05T07:27:36.339Z,9.79
2017-04-05T07:28:34.847Z,9.79
2017-04-05T07:29:33.358Z,9.77
2017-04-05T07:30:31.867Z,9.77
2017-04-05T07:31:30.381Z,9.94
2017-04-05T07:32:28.879Z,9.67
2017-04-05T07:33:27.429Z,9.74
2017-04-05T07:34:25.952Z,9.75
2017-04-05T07:35:24.575Z,9.85
2017-04-05T07:36:23.107Z,9.93
2017-04-05T07:37:21.652Z,10.07
2017-04-05T07:38:20.181Z,10.22
2017-04-05T07:39:18.751Z,10.34
2017-04-05T07:40:17.291Z,10.58
2017-04-05T07:41:15.808Z,10.59
2017-04-05T07:42:14.345Z,10.47
2017-04-05T07:43:13.025Z,10.59
2017-04-05T07:44:11.629Z,10.55
2017-04-05T07:45:10.273Z,10.65
2017-04-05T07:46:08.840Z,10.56
2017-04-05T07:47:07.467Z,10.79
2017-04-05T07:48:05.975Z,10.70
2017-04-05T07:49:04.758Z,10.77
2017-04-05T07:50:03.356Z,10.77
2017-04-05T07:51:01.896Z,10.80
2017-04-05T07:52:00.586Z,10.73
2017-04-05T07:52:59.128Z,10.80
2017-04-05T07:53:57.720Z,10.88
2017-04-05T07:54:56.299Z,10.93
2017-04-05T07:55:54.808Z,10.93
2017-04-05T07:56:53.325Z,10.78
2017-04-05T07:57:51.811Z,11.00
2017-04-05T07:58:50.340Z,10.81
2017-04-05T07:59:48.882Z,10.80
2017-04-05T08:00:47.399Z,10.89
2017-04-05T08:01:46.023Z,10.92
2017-04-05T08:02:44.652Z,10.97
2017-04-05T08:03:43.308Z,11.00
2017-04-05T08:04:41.941Z,10.97
2017-04-05T08:05:40.573Z,11.02
2017-04-05T08:06:39.184Z,10.95
2017-04-05T08:07:37.836Z,10.89
2017-04-05T08:08:36.461Z,10.80
2017-04-05T08:09:34.982Z,10.95
2017-04-05T08:10:33.528Z,10.91
2017-04-05T08:11:32.036Z,10.93
2017-04-05T08:12:30.941Z,11.12
2017-04-05T08:13:29.472Z,11.00
2017-04-05T08:14:27.983Z,10.89
2017-04-05T08:15:26.504Z,10.86
2017-04-05T08:16:25.060Z,10.74
2017-04-05T08:17:23.751Z,10.93
2017-04-05T08:18:22.281Z,10.95
2017-04-05T08:19:20.872Z,11.09
2017-04-05T08:20:19.416Z,11.15
2017-04-05T08:21:18.005Z,11.16
2017-04-05T08:22:16.588Z,11.18
2017-04-05T08:23:15.148Z,11.21
2017-04-05T08:24:13.748Z,11.14
2017-04-05T08:25:12.272Z,11.19
2017-04-05T08:26:10.812Z,11.19
2017-04-05T08:27:09.333Z,11.16
2017-04-05T08:28:07.895Z,11.27
2017-04-05T08:29:06.439Z,11.40
2017-04-05T08:30:05.004Z,11.21
2017-04-05T08:31:03.640Z,11.33
2017-04-05T08:32:02.248Z,11.51
2017-04-05T08:33:00.828Z,11.40
2017-04-05T08:33:59.342Z,11.52
2017-04-05T08:34:58.152Z,11.40
2017-04-05T08:35:56.708Z,11.42
2017-04-05T08:36:55.298Z,11.46
2017-04-05T08:37:53.855Z,11.44
2017-04-05T08:38:52.471Z,11.57
2017-04-05T08:39:50.992Z,11.55
2017-04-05T08:40:49.524Z,11.53
2017-04-05T08:41:48.093Z,11.51
2017-04-05T08:42:46.644Z,11.65
2017-04-05T08:43:45.162Z,11.72
2017-04-05T08:44:43.655Z,11.64
2017-04-05T08:45:42.296Z,11.66
2017-04-05T08:46:40.931Z,11.74
2017-04-05T08:47:39.571Z,11.85
2017-04-05T08:48:38.255Z,11.92
2017-04-05T08:49:36.899Z,11.85
2017-04-05T08:50:35.439Z,12.01
2017-04-05T08:51:33.969Z,11.90
2017-04-05T08:52:32.545Z,11.85
2017-04-05T08:53:31.068Z,11.88
2017-04-05T08:54:29.600Z,11.71
2017-04-05T08:55:28.130Z,11.66
2017-04-05T08:56:26.641Z,11.81
2017-04-05T08:57:25.147Z,11.83
2017-04-05T08:58:23.743Z,11.95
2017-04-05T08:59:22.307Z,11.99
2017-04-05T09:00:20.984Z,11.84
2017-04-05T09:01:19.620Z,11.92
2017-04-05T09:02:18.544Z,12.11
2017-04-05T09:03:17.229Z,12.24
2017-04-05T09:04:15.773Z,12.32
2017-04-05T09:05:14.311Z,12.26
2017-04-05T09:06:12.911Z,12.18
2017-04-05T09:07:11.507Z,12.28
2017-04-05T09:08:10.212Z,12.26
2017-04-05T09:09:08.716Z,12.23
2017-04-05T09:10:07.250Z,12.27
2017-04-05T09:11:05.792Z,12.41
2017-04-05T09:12:04.343Z,12.40
2017-04-05T09:13:02.894Z,12.48
2017-04-05T09:14:01.483Z,12.43
2017-04-05T09:15:00.094Z,12.39
2017-04-05T09:15:58.646Z,12.46
2017-04-05T09:16:57.189Z,12.54
2017-04-05T09:17:55.748Z,12.66
2017-04-05T09:18:54.287Z,12.56
2017-04-05T09:19:52.937Z,12.64
2017-04-05T09:20:51.479Z,12.74
2017-04-05T09:21:50.060Z,12.77
2017-04-05T09:22:48.691Z,12.71
2017-04-05T09:23:47.239Z,12.64
2017-04-05T09:24:45.924Z,12.62
2017-04-05T09:25:44.513Z,12.68
2017-04-05T09:26:43.023Z,12.61
2017-04-05T09:27:41.591Z,12.44
2017-04-05T09:28:40.228Z,12.56
2017-04-05T09:29:38.982Z,12.49
2017-04-05T09:30:37.499Z,12.45
2017-04-05T09:31:36.056Z,12.40
2017-04-05T09:32:34.614Z,12.23
2017-04-05T09:33:33.147Z,12.27
2017-04-05T09:34:31.648Z,12.27
2017-04-05T09:35:30.171Z,12.36
2017-04-05T09:36:28.741Z,12.41
2017-04-05T09:37:27.398Z,12.31
2017-04-05T09:38:26.043Z,12.31
2017-04-05T09:39:24.603Z,12.31
2017-04-05T09:40:23.888Z,12.45
2017-04-05T09:41:22.425Z,12.41
2017-04-05T09:42:20.939Z,12.38
2017-04-05T09:43:19.511Z,12.33
2017-04-05T09:44:18.107Z,12.37
2017-04-05T09:45:16.639Z,12.37
2017-04-05T09:46:15.170Z,12.36
2017-04-05T09:47:13.723Z,12.30
2017-04-05T09:48:12.264Z,12.21
2017-04-05T09:49:10.875Z,12.39
2017-04-05T09:50:09.528Z,12.38
2017-04-05T09:51:08.167Z,12.16
2017-04-05T09:52:06.767Z,12.00
2017-04-05T09:53:05.452Z,11.86
2017-04-05T09:54:03.988Z,11.86
2017-04-05T09:55:02.520Z,11.89
2017-04-05T09:56:01.088Z,11.94
2017-04-05T09:56:59.647Z,11.98
2017-04-05T09:57:58.209Z,12.01
2017-04-05T09:58:56.804Z,12.11
2017-04-05T09:59:55.411Z,12.05
2017-04-05T10:00:54.044Z,12.14
2017-04-05T10:01:52.660Z,12.28
2017-04-05T10:02:51.179Z,12.41
2017-04-05T10:03:49.695Z,12.70
2017-04-05T10:04:49.137Z,12.57
2017-04-05T10:05:47.677Z,12.69
2017-04-05T10:06:46.226Z,12.74
2017-04-05T10:07:44.750Z,12.65
2017-04-05T10:08:43.306Z,12.74
2017-04-05T10:09:41.893Z,12.76
2017-04-05T10:10:40.464Z,12.65
2017-04-05T10:11:39.015Z,12.62
2017-04-05T10:12:37.515Z,12.64
2017-04-05T10:13:36.031Z,12.54
2017-04-05T10:14:34.547Z,12.41
2017-04-05T10:15:33.083Z,12.33
2017-04-05T10:16:31.648Z,12.34
2017-04-05T10:17:30.186Z,12.38
2017-04-05T10:18:28.791Z,12.35
2017-04-05T10:19:27.398Z,12.31
2017-04-05T10:20:25.996Z,12.25
2017-04-05T10:21:24.704Z,12.27
2017-04-05T10:22:23.353Z,12.27
2017-04-05T10:23:21.917Z,12.23
2017-04-05T10:24:20.415Z,12.29
2017-04-05T10:25:18.961Z,12.34
2017-04-05T10:26:17.540Z,12.37
2017-04-05T10:27:16.060Z,12.48
2017-04-05T10:28:14.613Z,12.51
2017-04-05T10:29:13.163Z,12.56
2017-04-05T10:30:11.703Z,12.61
2017-04-05T10:31:10.267Z,12.58
2017-04-05T10:32:08.817Z,12.61
2017-04-05T10:33:07.447Z,12.68
2017-04-05T10:34:05.959Z,12.52
2017-04-05T10:35:04.642Z,12.48
2017-04-05T10:36:03.227Z,12.51
2017-04-05T10:37:01.758Z,12.43
2017-04-05T10:38:00.277Z,12.49
2017-04-05T10:38:58.810Z,12.54
2017-04-05T10:39:57.327Z,12.58
2017-04-05T10:40:55.862Z,12.62
2017-04-05T10:41:54.379Z,12.43
2017-04-05T10:42:52.923Z,12.39
2017-04-05T10:43:51.444Z,12.38
2017-04-05T10:44:49.987Z,12.29
2017-04-05T10:45:48.516Z,12.26
2017-04-05T10:46:47.106Z,12.33
2017-04-05T10:47:45.674Z,12.38
2017-04-05T10:48:44.239Z,12.40
2017-04-05T10:49:42.827Z,12.39
2017-04-05T10:50:41.373Z,12.43
2017-04-05T10:51:39.982Z,12.52
2017-04-05T10:52:38.492Z,12.48
2017-04-05T10:53:37.014Z,12.64
2017-04-05T10:54:35.628Z,12.67
2017-04-05T10:55:34.173Z,12.77
2017-04-05T10:56:32.719Z,12.88
2017-04-05T10:57:31.227Z,12.87
2017-04-05T10:58:29.723Z,12.74
2017-04-05T10:59:28.351Z,12.87
2017-04-05T11:00:26.922Z,12.97
2017-04-05T11:01:25.483Z,13.04
2017-04-05T11:02:24.442Z,12.87
2017-04-05T11:03:22.955Z,12.93
2017-04-05T11:04:21.591Z,12.84
2017-04-05T11:05:20.231Z,12.88
2017-04-05T11:06:18.774Z,13.09
2017-04-05T11:07:17.363Z,12.94
2017-04-05T11:08:15.935Z,13.01
2017-04-05T11:09:14.496Z,12.98
2017-04-05T11:10:12.998Z,13.10
2017-04-05T11:11:11.644Z,12.98
2017-04-05T11:12:10.235Z,13.02
2017-04-05T11:13:08.836Z,13.20
2017-04-05T11:14:07.338Z,13.33
2017-04-05T11:15:05.949Z,13.33
2017-04-05T11:16:04.475Z,13.46
2017-04-05T11:17:03.040Z,13.37
2017-04-05T11:18:01.673Z,13.52
2017-04-05T11:19:00.253Z,13.48
2017-04-05T11:19:58.766Z,13.41
2017-04-05T11:20:57.345Z,13.45
2017-04-05T11:21:55.907Z,13.34
2017-04-05T11:22:54.491Z,13.25
2017-04-05T11:23:53.111Z,13.29
2017-04-05T11:24:51.767Z,13.32
2017-04-05T11:25:50.363Z,13.37
2017-04-05T11:26:48.984Z,13.28
2017-04-05T11:27:47.575Z,13.17
2017-04-05T11:28:46.107Z,13.33
2017-04-05T11:29:44.611Z,13.43
2017-04-05T11:30:43.171Z,13.68
2017-04-05T11:31:41.744Z,13.61
2017-04-05T11:32:40.275Z,13.54
2017-04-05T11:33:38.823Z,13.54
2017-04-05T11:34:37.334Z,13.42
2017-04-05T11:35:35.996Z,13.52
2017-04-05T11:36:34.551Z,13.41
2017-04-05T11:37:33.157Z,13.43
2017-04-05T11:38:31.817Z,13.39
2017-04-05T11:39:30.412Z,13.39
2017-04-05T11:40:29.081Z,13.43
2017-04-05T11:41:27.644Z,13.61
2017-04-05T11:42:26.190Z,13.71
2017-04-05T11:43:24.810Z,13.75
2017-04-05T11:44:23.391Z,13.77
2017-04-05T11:45:22.701Z,13.72
2017-04-05T11:46:21.231Z,13.63
2017-04-05T11:47:19.789Z,13.54
2017-04-05T11:48:18.419Z,13.74
2017-04-05T11:49:16.976Z,13.89
2017-04-05T11:50:15.566Z,13.80
2017-04-05T11:51:14.203Z,13.81
2017-04-05T11:52:12.868Z,13.82
2017-04-05T11:53:11.482Z,14.04
2017-04-05T11:54:10.071Z,14.03
2017-04-05T11:55:08.642Z,14.17
2017-04-05T11:56:07.165Z,14.08
2017-04-05T11:57:05.915Z,14.00
2017-04-05T11:58:04.512Z,13.88
2017-04-05T11:59:03.075Z,14.06
2017-04-05T12:00:01.684Z,14.02
2017-04-05T12:01:00.251Z,14.06
2017-04-05T12:01:58.776Z,14.05
2017-04-05T12:02:57.296Z,13.97
2017-04-05T12:03:55.816Z,13.79
2017-04-05T12:04:54.348Z,13.78
2017-04-05T12:05:52.883Z,13.90
2017-04-05T12:06:51.538Z,14.03
2017-04-05T12:07:50.163Z,14.16
2017-04-05T12:08:48.816Z,14.08
2017-04-05T12:09:47.468Z,14.25
2017-04-05T12:10:45.972Z,14.28
2017-04-05T12:11:44.519Z,14.41
2017-04-05T12:12:43.041Z,14.30
2017-04-05T12:13:41.623Z,14.23
2017-04-05T12:14:40.152Z,14.19
2017-04-05T12:15:38.699Z,14.26
2017-04-05T12:16:37.234Z,14.23
2017-04-05T12:17:35.831Z,14.27
2017-04-05T12:18:34.328Z,14.15
2017-04-05T12:19:32.876Z,14.17
2017-04-05T12:20:31.515Z,14.23
2017-04-05T12:21:30.289Z,14.24
2017-04-05T12:22:28.878Z,14.29
2017-04-05T12:23:27.451Z,14.08
2017-04-05T12:24:25.983Z,14.06
2017-04-05T12:25:24.558Z,13.99
2017-04-05T12:26:23.227Z,13.83
2017-04-05T12:27:21.822Z,13.85
2017-04-05T12:28:20.426Z,13.92
2017-04-05T12:29:19.058Z,14.00
2017-04-05T12:30:17.599Z,14.06
2017-04-05T12:31:16.131Z,14.08
2017-04-05T12:32:14.699Z,14.20
2017-04-05T12:33:13.233Z,14.17
2017-04-05T12:34:11.823Z,14.23
2017-04-05T12:35:10.387Z,14.38
2017-04-05T12:36:08.929Z,14.58
2017-04-05T12:37:07.511Z,14.81
2017-04-05T12:38:06.047Z,14.83
2017-04-05T12:39:04.896Z,14.94
2017-04-05T12:40:03.443Z,15.05
2017-04-05T12:41:02.077Z,15.41
2017-04-05T12:42:00.727Z,15.58
2017-04-05T12:44:54.736Z,16.14
2017-04-05T12:45:53.252Z,16.28
2017-04-05T12:46:51.781Z,16.23
2017-04-05T12:47:50.316Z,16.36
2017-04-05T12:48:48.805Z,16.17
2017-04-05T12:49:47.368Z,16.02
2017-04-05T12:50:45.942Z,15.87